Time;durP1;ratioP1;P1;durP2;ratioP2;P2;SDS_P1;SDS_P2;PMS_P1;PMS_P2;Temp;Humidity;BMP_temperature;BMP_pressure;BME280_temperature;BME280_humidity;BME280_pressure;Samples;Min_cycle;Max_cycle;Signal;HPM_P1;HPM_P2
2021/05/14 00:00:49;;;;;;;11.87;5.90;;;;;;;-144.99;nan;52407.31;5038178;28;20201;-77
2021/05/14 00:03:24;;;;;;;16.83;6.87;;;;;;;-144.99;nan;52348.22;5036837;28;20225;-78
2021/05/14 00:05:58;;;;;;;12.93;7.43;;;;;;;-144.99;nan;52352.28;5034102;28;20232;-79
2021/05/14 00:08:33;;;;;;;12.50;7.17;;;;;;;-144.99;nan;52366.56;5036511;28;20229;-78
2021/05/14 00:11:07;;;;;;;17.97;7.77;;;;;;;-144.99;nan;52348.22;5036100;28;20217;-79
2021/05/14 00:13:39;;;;;;;10.03;5.80;;;;;;;-144.99;nan;52407.31;5027272;28;20234;-77
2021/05/14 00:16:11;;;;;;;13.80;5.30;;;;;;;-144.99;nan;52378.78;5024433;28;20218;-77
2021/05/14 00:18:45;;;;;;;21.07;9.43;;;;;;;-144.99;nan;52370.63;5032823;28;20229;-78
2021/05/14 00:21:20;;;;;;;19.30;8.60;;;;;;;-144.99;nan;52374.72;5033172;28;20209;-77
2021/05/14 00:23:54;;;;;;;12.77;5.77;;;;;;;-144.99;nan;52346.19;5032753;28;20724;-77
2021/05/14 00:26:29;;;;;;;13.63;6.73;;;;;;;-144.99;nan;52391.03;5032676;28;20202;-77
2021/05/14 00:29:01;;;;;;;15.47;6.53;;;;;;;-144.99;nan;52388.97;5034456;28;20431;-77
2021/05/14 00:31:36;;;;;;;14.60;5.70;;;;;;;-144.99;nan;52376.75;5033459;28;20210;-76
2021/05/14 00:34:11;;;;;;;14.63;7.23;;;;;;;-144.99;nan;52366.56;5031117;28;20202;-76
2021/05/14 00:36:42;;;;;;;9.57;6.80;;;;;;;-144.99;nan;52366.56;5026124;28;20695;-77
2021/05/14 00:39:17;;;;;;;19.70;7.13;;;;;;;-144.99;nan;52395.09;5032121;28;20279;-76
2021/05/14 00:41:46;;;;;;;8.40;4.80;;;;;;;-144.99;nan;52374.72;5032271;28;20217;-77
2021/05/14 00:44:35;;;;;;;8.90;6.20;;;;;;;-144.99;nan;52407.31;5031663;28;20596;-75
2021/05/14 00:47:08;;;;;;;11.23;7.90;;;;;;;-144.99;nan;52350.25;5025260;28;20214;-76
2021/05/14 00:49:44;;;;;;;12.97;5.20;;;;;;;-144.99;nan;52403.25;5027015;28;20297;-77
2021/05/14 00:52:20;;;;;;;15.83;6.40;;;;;;;-144.99;nan;52354.34;5027905;28;20287;-76
2021/05/14 00:54:55;;;;;;;12.93;5.80;;;;;;;-144.99;nan;52370.63;5031549;28;20217;-75
2021/05/14 00:57:31;;;;;;;11.57;5.93;;;;;;;-144.99;nan;52378.78;5029473;28;20209;-76
2021/05/14 01:00:06;;;;;;;17.53;7.50;;;;;;;-144.99;nan;52411.41;5031458;28;20228;-74
2021/05/14 01:02:41;;;;;;;9.03;5.53;;;;;;;-144.99;nan;52362.50;5024422;28;20313;-76
2021/05/14 01:05:14;;;;;;;15.87;6.40;;;;;;;-144.99;nan;52370.63;5030610;28;20213;-77
2021/05/14 01:07:50;;;;;;;11.37;5.97;;;;;;;-144.99;nan;52415.47;5026563;28;20217;-78
2021/05/14 01:10:22;;;;;;;14.10;6.47;;;;;;;-144.99;nan;52382.88;5031787;28;20221;-76
2021/05/14 01:12:54;;;;;;;19.83;7.57;;;;;;;-144.99;nan;52360.44;5030940;28;20541;-77
2021/05/14 01:15:28;;;;;;;12.87;6.30;;;;;;;-144.99;nan;52378.78;5030929;28;20210;-76
2021/05/14 01:18:01;;;;;;;13.57;6.57;;;;;;;-144.99;nan;52380.84;5028077;28;20260;-76
2021/05/14 01:20:36;;;;;;;12.10;7.07;;;;;;;-144.99;nan;52403.25;5030116;28;20210;-76
2021/05/14 01:23:11;;;;;;;14.13;8.17;;;;;;;-144.99;nan;52354.34;5031440;28;20230;-77
2021/05/14 01:25:43;;;;;;;13.67;7.77;;;;;;;-144.99;nan;52356.38;5027084;28;20210;-74
2021/05/14 01:28:18;;;;;;;16.47;8.97;;;;;;;-144.99;nan;52382.88;5029957;28;20229;-75
2021/05/14 01:30:53;;;;;;;8.57;6.30;;;;;;;-144.99;nan;52376.75;5030947;28;20267;-75
2021/05/14 01:33:28;;;;;;;11.60;6.93;;;;;;;-144.99;nan;52386.94;5040037;28;20206;-74
2021/05/14 01:36:01;;;;;;;15.60;6.40;;;;;;;-144.99;nan;52378.78;5040267;28;20567;-73
2021/05/14 01:38:36;;;;;;;17.70;7.10;;;;;;;-144.99;nan;52391.03;5036752;28;20226;-74
2021/05/14 01:41:11;;;;;;;12.47;6.00;;;;;;;-144.99;nan;52386.94;5036074;28;20352;-75
2021/05/14 01:43:45;;;;;;;18.00;7.53;;;;;;;-144.99;nan;52354.34;5040155;28;20306;-74
2021/05/14 01:46:20;;;;;;;12.03;8.07;;;;;;;-144.99;nan;52354.34;5038900;28;20216;-74
2021/05/14 01:48:53;;;;;;;16.27;8.97;;;;;;;-144.99;nan;52415.47;5039269;28;20241;-75
2021/05/14 01:51:29;;;;;;;12.47;9.27;;;;;;;-144.99;nan;52350.25;5038051;28;20210;-75
2021/05/14 01:54:01;;;;;;;11.03;7.63;;;;;;;-144.99;nan;52350.25;5035651;28;20214;-74
2021/05/14 01:56:35;;;;;;;20.77;9.67;;;;;;;-144.99;nan;52382.88;5036554;28;20205;-74
2021/05/14 01:59:10;;;;;;;14.50;7.63;;;;;;;-144.99;nan;52368.59;5024955;28;20660;-76
2021/05/14 02:01:45;;;;;;;18.90;8.93;;;;;;;-144.99;nan;52407.31;5028182;28;20297;-76
2021/05/14 02:04:17;;;;;;;18.83;10.73;;;;;;;-144.99;nan;52362.50;5026086;28;20625;-76
2021/05/14 02:06:52;;;;;;;13.47;8.10;;;;;;;-144.99;nan;52354.34;5017711;28;20559;-75
2021/05/14 02:09:27;;;;;;;14.83;7.20;;;;;;;-144.99;nan;52378.78;5029198;28;20724;-76
2021/05/14 02:12:01;;;;;;;13.63;9.23;;;;;;;-144.99;nan;52350.25;5029981;28;20597;-75
2021/05/14 02:14:39;;;;;;;12.63;9.13;;;;;;;-144.99;nan;52360.44;5028887;28;20205;-77
2021/05/14 02:17:14;;;;;;;12.53;10.83;;;;;;;-144.99;nan;52350.25;5029084;28;20210;-77
2021/05/14 02:19:48;;;;;;;16.87;7.03;;;;;;;-144.99;nan;52386.94;5022470;28;20225;-76
2021/05/14 02:22:21;;;;;;;17.90;8.50;;;;;;;-144.99;nan;52358.41;5023157;28;20265;-76
2021/05/14 02:24:56;;;;;;;10.23;6.60;;;;;;;-144.99;nan;52439.94;5029534;28;20590;-76
2021/05/14 02:27:30;;;;;;;14.90;7.73;;;;;;;-144.99;nan;52370.63;5028365;28;20209;-75
2021/05/14 02:30:06;;;;;;;23.03;8.87;;;;;;;-144.99;nan;52374.72;5027955;28;20213;-76
2021/05/14 02:32:37;;;;;;;23.63;9.30;;;;;;;-144.99;nan;52378.78;5029567;28;20206;-76
2021/05/14 02:35:18;;;;;;;12.80;7.20;;;;;;;-144.99;nan;52382.88;5029739;28;20210;-75
2021/05/14 02:37:53;;;;;;;20.80;9.60;;;;;;;-144.99;nan;52374.72;5021646;28;20334;-76
2021/05/14 02:40:27;;;;;;;16.50;6.97;;;;;;;-144.99;nan;52399.19;5027820;28;20221;-75
2021/05/14 02:43:02;;;;;;;16.63;8.10;;;;;;;-144.99;nan;52382.88;5029582;28;20229;-76
2021/05/14 02:45:36;;;;;;;16.47;8.07;;;;;;;-144.99;nan;52382.88;5030368;28;20205;-75
2021/05/14 02:48:13;;;;;;;17.53;8.60;;;;;;;-144.99;nan;52352.28;5033006;28;20225;-76
2021/05/14 02:50:47;;;;;;;14.10;7.07;;;;;;;-144.99;nan;52366.56;5033972;28;20206;-76
2021/05/14 02:53:23;;;;;;;16.23;8.57;;;;;;;-144.99;nan;52329.88;5033706;28;20201;-77
2021/05/14 02:55:54;;;;;;;11.70;7.60;;;;;;;-144.99;nan;52321.72;5034931;28;20275;-76
2021/05/14 02:58:33;;;;;;;16.23;6.70;;;;;;;-144.99;nan;52370.63;5040260;28;20347;-78
2021/05/14 03:01:05;;;;;;;20.30;8.77;;;;;;;-144.99;nan;52374.72;5030211;28;20574;-76
2021/05/14 03:03:40;;;;;;;19.10;8.40;;;;;;;-144.99;nan;52395.09;5031790;28;20226;-76
2021/05/14 03:06:11;;;;;;;16.13;8.10;;;;;;;-144.99;nan;52386.94;5033682;28;20262;-76
2021/05/14 03:08:47;;;;;;;14.37;8.20;;;;;;;-144.99;nan;52382.88;5032566;28;20226;-74
2021/05/14 03:11:21;;;;;;;15.27;7.20;;;;;;;-144.99;nan;52388.97;5034101;28;20202;-76
2021/05/14 03:13:56;;;;;;;11.17;7.80;;;;;;;-144.99;nan;52378.78;5043008;28;20271;-75
2021/05/14 03:16:30;;;;;;;16.27;9.30;;;;;;;-144.99;nan;52364.53;5033083;28;20209;-77
2021/05/14 03:19:05;;;;;;;16.83;7.23;;;;;;;-144.99;nan;52370.63;5032033;28;20221;-76
2021/05/14 03:21:37;;;;;;;21.77;9.13;;;;;;;-144.99;nan;52376.75;5031400;28;20236;-74
2021/05/14 03:24:13;;;;;;;13.30;8.00;;;;;;;-144.99;nan;52386.94;5032274;28;20221;-76
2021/05/14 03:26:41;;;;;;;12.43;11.13;;;;;;;-144.99;nan;52342.09;5026199;28;20202;-75
2021/05/14 03:29:16;;;;;;;18.67;10.20;;;;;;;-144.99;nan;52313.56;5032570;28;20284;-76
2021/05/14 03:31:51;;;;;;;19.97;9.77;;;;;;;-144.99;nan;52388.97;5034195;28;20209;-75
2021/05/14 03:34:25;;;;;;;26.37;8.97;;;;;;;-144.99;nan;52411.41;5032462;28;20519;-74
2021/05/14 03:36:59;;;;;;;18.57;7.13;;;;;;;-144.99;nan;52395.09;5032284;28;20209;-74
2021/05/14 03:39:39;;;;;;;22.77;8.73;;;;;;;-144.99;nan;52368.59;5032045;28;20221;-75
2021/05/14 03:42:15;;;;;;;26.23;7.10;;;;;;;-144.99;nan;52386.94;5024358;28;20698;-75
2021/05/14 03:44:49;;;;;;;19.30;7.67;;;;;;;-144.99;nan;52350.25;5026116;28;20226;-75
2021/05/14 03:47:25;;;;;;;16.80;11.03;;;;;;;-144.99;nan;52421.59;5030101;28;20220;-74
2021/05/14 03:49:59;;;;;;;18.63;9.03;;;;;;;-144.99;nan;52378.78;5026515;28;20233;-76
2021/05/14 03:52:34;;;;;;;13.67;8.00;;;;;;;-144.99;nan;52350.25;5032547;28;20213;-75
2021/05/14 03:55:10;;;;;;;14.73;9.07;;;;;;;-144.99;nan;52340.06;5033190;28;20263;-75
2021/05/14 03:57:45;;;;;;;10.57;8.87;;;;;;;-144.99;nan;52362.50;5025537;28;20222;-76
2021/05/14 04:00:20;;;;;;;15.73;7.60;;;;;;;-144.99;nan;52382.88;5036072;28;20225;-77
2021/05/14 04:02:56;;;;;;;15.47;8.07;;;;;;;-144.99;nan;52397.13;5040556;28;20225;-75
2021/05/14 04:05:33;;;;;;;12.63;8.23;;;;;;;-144.99;nan;52333.94;5040929;28;20210;-75
2021/05/14 04:08:05;;;;;;;15.63;8.67;;;;;;;-144.99;nan;52393.06;5040148;28;20234;-76
2021/05/14 04:16:17;;;;;;;12.27;6.13;;;;;;;-144.99;nan;52331.91;5039099;28;20217;-75
2021/05/14 04:18:48;;;;;;;13.93;6.57;;;;;;;-144.99;nan;52370.63;5034559;28;20237;-75
2021/05/14 04:21:23;;;;;;;16.50;6.47;;;;;;;-144.99;nan;52370.63;5030702;28;20211;-75
2021/05/14 04:23:58;;;;;;;22.07;5.80;;;;;;;-144.99;nan;52384.91;5036249;28;20252;-76
2021/05/14 04:26:33;;;;;;;14.73;6.40;;;;;;;-144.99;nan;52386.94;5036503;28;20272;-77
2021/05/14 04:29:07;;;;;;;9.70;4.77;;;;;;;-144.99;nan;52380.84;5036788;28;20309;-77
2021/05/14 04:31:43;;;;;;;13.70;6.60;;;;;;;-144.99;nan;52386.94;5015346;28;20202;-75
2021/05/14 04:34:15;;;;;;;10.73;6.43;;;;;;;-144.99;nan;52354.34;5030647;28;20621;-76
2021/05/14 04:36:49;;;;;;;17.13;7.50;;;;;;;-144.99;nan;52338.03;5033035;28;20213;-75
2021/05/14 04:39:24;;;;;;;11.63;5.70;;;;;;;-144.99;nan;52382.88;5032767;28;20229;-76
2021/05/14 04:41:59;;;;;;;10.20;5.67;;;;;;;-144.99;nan;52317.66;5020985;28;20696;-76
2021/05/14 04:44:34;;;;;;;17.13;9.50;;;;;;;-144.99;nan;52342.09;5032254;28;20222;-76
2021/05/14 04:47:05;;;;;;;11.73;5.53;;;;;;;-144.99;nan;52366.56;5031873;28;20206;-76
2021/05/14 04:49:40;;;;;;;11.53;4.00;;;;;;;-144.99;nan;52358.41;5026050;28;20234;-74
2021/05/14 04:52:22;;;;;;;17.13;5.87;;;;;;;-144.99;nan;52342.09;5026703;28;20205;-74
2021/05/14 04:54:58;;;;;;;13.93;6.43;;;;;;;-144.99;nan;52329.88;5032086;28;20206;-75
2021/05/14 04:57:34;;;;;;;10.87;6.50;;;;;;;-144.99;nan;52362.50;5031993;28;20241;-75
2021/05/14 05:00:09;;;;;;;13.97;4.87;;;;;;;-144.99;nan;52374.72;5030347;28;20482;-75
2021/05/14 05:02:41;;;;;;;17.20;5.43;;;;;;;-144.99;nan;52382.88;5020905;28;20617;-75
2021/05/14 05:05:13;;;;;;;11.07;5.37;;;;;;;-144.99;nan;52374.72;5031442;28;20700;-76
2021/05/14 05:07:48;;;;;;;10.30;7.90;;;;;;;-144.99;nan;52386.94;5031170;28;20379;-76
2021/05/14 05:10:18;;;;;;;16.00;6.80;;;;;;;-144.99;nan;52370.63;5029812;28;20206;-77
2021/05/14 05:12:54;;;;;;;17.73;7.13;;;;;;;-144.99;nan;52378.78;5030864;28;20683;-76
2021/05/14 05:15:28;;;;;;;13.30;5.73;;;;;;;-144.99;nan;52391.03;5031283;28;20205;-75
2021/05/14 05:18:00;;;;;;;21.23;5.60;;;;;;;-144.99;nan;52329.88;5030067;28;20232;-75
2021/05/14 05:20:35;;;;;;;18.13;6.80;;;;;;;-144.99;nan;52346.19;5026482;28;20217;-76
2021/05/14 05:23:12;;;;;;;15.03;6.60;;;;;;;-144.99;nan;52366.56;5033881;28;20229;-76
2021/05/14 05:25:43;;;;;;;19.83;6.93;;;;;;;-144.99;nan;52354.34;5030302;28;20221;-77
2021/05/14 05:28:13;;;;;;;15.73;8.17;;;;;;;-144.99;nan;52370.63;5032116;28;20272;-77
2021/05/14 05:30:53;;;;;;;13.20;6.20;;;;;;;-144.99;nan;52386.94;5032501;28;20252;-78
2021/05/14 05:33:28;;;;;;;10.97;5.00;;;;;;;-144.99;nan;52374.72;5031616;28;20202;-77
2021/05/14 05:35:59;;;;;;;12.00;4.90;;;;;;;-144.99;nan;52403.25;5030346;28;20209;-76
2021/05/14 05:38:33;;;;;;;17.67;8.00;;;;;;;-144.99;nan;52386.94;5029894;28;20226;-75
2021/05/14 05:41:07;;;;;;;11.23;5.47;;;;;;;-144.99;nan;52382.88;5029504;28;20202;-74
2021/05/14 05:43:42;;;;;;;10.20;4.53;;;;;;;-144.99;nan;52370.63;5021352;28;20229;-76
2021/05/14 05:46:19;;;;;;;19.60;6.23;;;;;;;-144.99;nan;52382.88;5029529;28;20216;-73
2021/05/14 05:48:54;;;;;;;14.20;6.77;;;;;;;-144.99;nan;52382.88;5030240;28;20245;-77
2021/05/14 05:51:29;;;;;;;12.80;6.50;;;;;;;-144.99;nan;52366.56;5029183;28;20198;-75
2021/05/14 05:54:04;;;;;;;22.30;6.13;;;;;;;-144.99;nan;52401.22;5023232;28;20584;-75
2021/05/14 05:56:35;;;;;;;17.40;5.87;;;;;;;-144.99;nan;52360.44;5029569;28;20210;-76
2021/05/14 05:59:14;;;;;;;13.30;5.10;;;;;;;-144.99;nan;52391.03;5029947;28;20222;-75
2021/05/14 06:01:49;;;;;;;13.27;6.30;;;;;;;-144.99;nan;52386.94;5028680;28;20309;-75
2021/05/14 06:04:23;;;;;;;16.80;9.47;;;;;;;-144.99;nan;52348.22;5028259;28;20280;-75
2021/05/14 06:06:58;;;;;;;16.67;9.20;;;;;;;-144.99;nan;52399.19;5026589;28;20283;-73
2021/05/14 06:09:32;;;;;;;19.10;6.67;;;;;;;-144.99;nan;52358.41;5028939;28;20244;-73
2021/05/14 06:12:07;;;;;;;19.23;7.03;;;;;;;-144.99;nan;52364.53;5029881;28;20218;-72
2021/05/14 06:14:50;;;;;;;13.00;7.10;;;;;;;-144.99;nan;52391.03;5028883;28;20677;-73
2021/05/14 06:17:25;;;;;;;15.47;7.33;;;;;;;-144.99;nan;52370.63;5029733;28;20210;-74
2021/05/14 06:20:01;;;;;;;22.23;9.60;;;;;;;-144.99;nan;52386.94;5027286;28;20405;-72
2021/05/14 06:22:35;;;;;;;15.90;5.63;;;;;;;-144.99;nan;52395.09;5029213;28;20201;-73
2021/05/14 06:25:11;;;;;;;15.37;5.57;;;;;;;-144.99;nan;52374.72;5030826;28;20225;-73
2021/05/14 06:27:45;;;;;;;19.23;6.47;;;;;;;-144.99;nan;52338.03;5029567;28;20220;-75
2021/05/14 06:30:19;;;;;;;9.00;5.57;;;;;;;-144.99;nan;52356.38;5029781;28;20209;-73
2021/05/14 06:32:54;;;;;;;13.03;6.87;;;;;;;-144.99;nan;52374.72;5022104;28;20207;-72
2021/05/14 06:35:29;;;;;;;20.03;6.37;;;;;;;-144.99;nan;52370.63;5028010;28;20213;-74
2021/05/14 06:38:04;;;;;;;20.80;6.57;;;;;;;-144.99;nan;52362.50;5030239;28;20240;-73
2021/05/14 06:40:35;;;;;;;20.80;5.17;;;;;;;-144.99;nan;52384.91;5028771;28;20609;-76
2021/05/14 06:43:10;;;;;;;11.67;6.13;;;;;;;-144.99;nan;52368.59;5030152;28;20625;-76
2021/05/14 06:45:50;;;;;;;16.20;6.03;;;;;;;-144.99;nan;52362.50;5027611;28;20209;-77
2021/05/14 06:48:25;;;;;;;17.00;8.20;;;;;;;-144.99;nan;52354.34;5030482;28;20767;-77
2021/05/14 06:50:59;;;;;;;15.53;6.83;;;;;;;-144.99;nan;52374.72;5029018;28;20349;-74
2021/05/14 06:53:30;;;;;;;12.70;5.97;;;;;;;-144.99;nan;52346.19;5022582;28;20217;-79
2021/05/14 06:56:02;;;;;;;20.27;7.47;;;;;;;-144.99;nan;52374.72;5030168;28;20209;-75
2021/05/14 06:58:36;;;;;;;20.50;8.50;;;;;;;-144.99;nan;52366.56;5029183;28;20229;-78
2021/05/14 07:01:12;;;;;;;12.67;6.83;;;;;;;-144.99;nan;52382.88;5032565;28;20206;-77
2021/05/14 07:03:46;;;;;;;11.20;6.23;;;;;;;-144.99;nan;52401.22;5024105;28;20591;-76
2021/05/14 07:06:18;;;;;;;12.10;9.00;;;;;;;-144.99;nan;52350.25;5039391;28;20212;-79
2021/05/14 07:08:53;;;;;;;15.57;4.73;;;;;;;-144.99;nan;52364.53;5034164;28;20775;-75
2021/05/14 07:11:28;;;;;;;16.80;5.33;;;;;;;-144.99;nan;52370.63;5028970;28;20605;-72
2021/05/14 07:14:02;;;;;;;19.40;5.93;;;;;;;-144.99;nan;52338.03;5025619;28;20202;-71
2021/05/14 07:16:35;;;;;;;10.93;5.23;;;;;;;-144.99;nan;52329.88;5024086;28;20272;-74
2021/05/14 07:19:13;;;;;;;15.77;5.37;;;;;;;-144.99;nan;52378.78;5028463;28;20713;-70
2021/05/14 07:21:48;;;;;;;18.93;5.40;;;;;;;-144.99;nan;52348.22;5022054;28;20480;-72
2021/05/14 07:24:22;;;;;;;22.20;8.70;;;;;;;-144.99;nan;52342.09;5026913;28;20238;-70
2021/05/14 07:26:56;;;;;;;17.67;7.67;;;;;;;-144.99;nan;52350.25;5028778;28;20209;-72
2021/05/14 07:29:31;;;;;;;13.13;7.67;;;;;;;-144.99;nan;52325.81;5029044;28;20230;-71
2021/05/14 07:32:06;;;;;;;16.10;4.53;;;;;;;-144.99;nan;52362.50;5033307;28;20268;-75
2021/05/14 07:34:40;;;;;;;10.43;5.20;;;;;;;-144.99;nan;52374.72;5026217;28;20272;-71
2021/05/14 07:37:15;;;;;;;9.80;4.80;;;;;;;-144.99;nan;52386.94;5034414;28;20212;-77
2021/05/14 07:39:50;;;;;;;10.80;4.63;;;;;;;-144.99;nan;52362.50;5038629;28;20235;-77
2021/05/14 07:42:26;;;;;;;14.77;6.80;;;;;;;-144.99;nan;52362.50;5039315;28;20221;-77
2021/05/14 07:45:01;;;;;;;13.87;5.67;;;;;;;-144.99;nan;52376.75;5045715;28;20229;-80
2021/05/14 07:47:36;;;;;;;15.63;5.57;;;;;;;-144.99;nan;52348.22;5045734;28;20236;-77
2021/05/14 07:50:12;;;;;;;11.63;6.03;;;;;;;-144.99;nan;52403.25;5041822;28;20206;-78
2021/05/14 07:52:48;;;;;;;7.60;3.83;;;;;;;-144.99;nan;52395.09;5045727;28;20224;-78
2021/05/14 07:55:23;;;;;;;15.73;7.17;;;;;;;-144.99;nan;52333.94;5048880;28;20208;-78
2021/05/14 07:57:57;;;;;;;9.70;4.37;;;;;;;-144.99;nan;52364.53;5036539;28;20225;-78
2021/05/14 08:00:37;;;;;;;16.63;5.93;;;;;;;-144.99;nan;52327.84;5041058;28;20216;-77
2021/05/14 08:03:12;;;;;;;16.30;6.17;;;;;;;-144.99;nan;52370.63;5036611;28;20216;-76
2021/05/14 08:05:47;;;;;;;13.80;5.67;;;;;;;-144.99;nan;52362.50;5035642;28;20355;-77
2021/05/14 08:08:20;;;;;;;15.80;5.13;;;;;;;-144.99;nan;52305.41;5033453;28;20767;-76
2021/05/14 08:10:59;;;;;;;12.30;4.17;;;;;;;-144.99;nan;52370.63;5034420;28;20595;-76
2021/05/14 08:13:31;;;;;;;15.13;4.50;;;;;;;-144.99;nan;52350.25;5034119;28;20236;-75
2021/05/14 08:16:05;;;;;;;11.13;4.63;;;;;;;-144.99;nan;52362.50;5030188;28;20237;-76
2021/05/14 08:18:38;;;;;;;11.50;4.93;;;;;;;-144.99;nan;52366.56;5027949;28;20234;-74
2021/05/14 08:21:12;;;;;;;15.73;4.47;;;;;;;-144.99;nan;52378.78;5038055;28;20556;-78
2021/05/14 08:23:44;;;;;;;13.50;4.23;;;;;;;-144.99;nan;52374.72;5035436;28;20236;-76
2021/05/14 08:26:12;;;;;;;8.57;5.53;;;;;;;-144.99;nan;52333.94;5031075;28;20202;-75
2021/05/14 08:28:44;;;;;;;17.30;4.40;;;;;;;-144.99;nan;52368.59;5038596;28;20230;-76
2021/05/14 08:31:16;;;;;;;12.43;8.33;;;;;;;-144.99;nan;52346.19;5041775;28;20624;-77
2021/05/14 08:33:51;;;;;;;9.60;4.63;;;;;;;-144.99;nan;52358.41;5043829;28;20237;-77
2021/05/14 08:36:24;;;;;;;16.17;5.47;;;;;;;-144.99;nan;52356.38;5041780;28;20293;-78
2021/05/14 08:38:58;;;;;;;19.27;6.47;;;;;;;-144.99;nan;52362.50;5037653;28;20230;-77
2021/05/14 08:41:34;;;;;;;21.47;8.87;;;;;;;-144.99;nan;52366.56;5042289;28;20215;-79
2021/05/14 08:44:09;;;;;;;8.70;5.17;;;;;;;-144.99;nan;52370.63;5041558;28;20309;-76
2021/05/14 08:46:42;;;;;;;26.23;6.80;;;;;;;-144.99;nan;52360.44;5040718;28;20212;-77
2021/05/14 08:49:18;;;;;;;11.67;5.30;;;;;;;-144.99;nan;52317.66;5032385;28;20240;-77
2021/05/14 08:51:58;;;;;;;10.87;4.67;;;;;;;-144.99;nan;52360.44;5041482;28;20202;-78
2021/05/14 08:54:31;;;;;;;20.97;5.60;;;;;;;-144.99;nan;52354.34;5041274;28;20296;-76
2021/05/14 08:57:05;;;;;;;12.20;5.93;;;;;;;-144.99;nan;52362.50;5048367;28;20270;-77
2021/05/14 08:59:42;;;;;;;9.47;5.30;;;;;;;-144.99;nan;52378.78;5043570;28;20222;-76
2021/05/14 09:02:19;;;;;;;10.63;5.03;;;;;;;-144.99;nan;52370.63;5039915;28;20237;-78
2021/05/14 09:05:00;;;;;;;22.13;6.03;;;;;;;-144.99;nan;52399.19;5048734;28;20225;-78
2021/05/14 09:07:46;;;;;;;13.03;5.00;;;;;;;-144.99;nan;52370.63;5027929;28;20218;-79
2021/05/14 09:10:29;;;;;;;12.80;5.70;;;;;;;-144.99;nan;52368.59;5035982;28;20202;-77
2021/05/14 09:13:12;;;;;;;11.07;5.43;;;;;;;-144.99;nan;52331.91;5046390;28;20194;-78
2021/05/14 09:15:55;;;;;;;15.67;7.77;;;;;;;-144.99;nan;52378.78;5038819;28;20669;-79
2021/05/14 09:18:30;;;;;;;14.23;5.70;;;;;;;-144.99;nan;52370.63;5032882;28;20229;-79
2021/05/14 09:21:06;;;;;;;28.67;9.43;;;;;;;-144.99;nan;52354.34;5034445;28;20213;-79
2021/05/14 09:23:42;;;;;;;17.27;6.57;;;;;;;-144.99;nan;52342.09;5034268;28;20229;-78
2021/05/14 09:26:17;;;;;;;21.57;5.80;;;;;;;-144.99;nan;52391.03;5039463;28;20205;-79
2021/05/14 09:28:57;;;;;;;16.77;6.20;;;;;;;-144.99;nan;52317.66;5026907;28;20228;-79
2021/05/14 09:31:30;;;;;;;17.60;4.10;;;;;;;-144.99;nan;52358.41;5037058;28;20287;-80
2021/05/14 09:34:06;;;;;;;9.13;4.70;;;;;;;-144.99;nan;52374.72;5041451;28;20198;-79
2021/05/14 09:36:41;;;;;;;8.33;4.53;;;;;;;-144.99;nan;52391.03;5038672;28;20207;-79
2021/05/14 09:39:14;;;;;;;23.13;7.87;;;;;;;-144.99;nan;52378.78;5032158;28;20240;-81
2021/05/14 09:41:46;;;;;;;15.57;5.00;;;;;;;-144.99;nan;52350.25;5029286;28;20198;-78
2021/05/14 09:44:23;;;;;;;15.60;5.33;;;;;;;-144.99;nan;52378.78;5060314;23;20291;-78
2021/05/14 09:46:59;;;;;;;14.70;5.73;;;;;;;-144.99;nan;52356.38;5000710;28;20219;-80
2021/05/14 09:49:34;;;;;;;7.63;4.53;;;;;;;-144.99;nan;52354.34;5008205;28;20218;-79
2021/05/14 09:52:10;;;;;;;10.53;6.43;;;;;;;-144.99;nan;52370.63;5006233;28;20222;-80
2021/05/14 09:54:46;;;;;;;11.10;6.17;;;;;;;-144.99;nan;52391.03;4995887;28;20314;-78
2021/05/14 09:57:32;;;;;;;11.23;6.37;;;;;;;-144.99;nan;52395.09;4993064;28;20246;-80
2021/05/14 10:00:09;;;;;;;9.67;6.03;;;;;;;-144.99;nan;52374.72;4997901;28;20235;-78
2021/05/14 10:02:43;;;;;;;18.10;5.03;;;;;;;-144.99;nan;52358.41;4986461;28;20207;-79
2021/05/14 10:05:18;;;;;;;12.67;4.83;;;;;;;-144.99;nan;52413.44;4987074;28;21447;-80
2021/05/14 10:07:54;;;;;;;10.70;5.63;;;;;;;-144.99;nan;52382.88;4983711;28;20259;-81
2021/05/14 10:10:30;;;;;;;7.90;4.73;;;;;;;-144.99;nan;52388.97;4979389;28;20204;-80
2021/05/14 10:13:05;;;;;;;14.33;4.30;;;;;;;-144.99;nan;52354.34;4975985;28;20200;-80
2021/05/14 10:15:40;;;;;;;17.33;5.80;;;;;;;-144.99;nan;52382.88;4984580;28;20231;-79
2021/05/14 10:20:52;;;;;;;18.83;7.30;;;;;;;-144.99;nan;52374.72;5408470;23;20240;-79
2021/05/14 10:23:31;;;;;;;13.73;6.37;;;;;;;-144.99;nan;52382.88;4954020;28;20272;-78
2021/05/14 10:26:13;;;;;;;15.60;5.80;;;;;;;-144.99;nan;52415.47;4947675;28;20271;-77
2021/05/14 10:28:51;;;;;;;17.90;7.13;;;;;;;-144.99;nan;52386.94;4944660;23;20284;-80
2021/05/14 10:31:29;;;;;;;12.27;4.57;;;;;;;-144.99;nan;52393.06;4930394;29;20209;-78
2021/05/14 10:34:15;;;;;;;14.00;5.87;;;;;;;-144.99;nan;52386.94;4933919;29;20236;-75
2021/05/14 10:36:53;;;;;;;18.47;4.77;;;;;;;-144.99;nan;52374.72;4934841;29;20240;-78
2021/05/14 10:39:37;;;;;;;14.03;4.87;;;;;;;-144.99;nan;52391.03;4978615;23;20275;-81
2021/05/14 10:42:13;;;;;;;20.40;7.37;;;;;;;-144.99;nan;52362.50;4969018;28;20216;-78
2021/05/14 10:44:58;;;;;;;15.60;5.40;;;;;;;-144.99;nan;52376.75;4972491;28;20224;-78
2021/05/14 10:47:49;;;;;;;11.83;4.20;;;;;;;-144.99;nan;52423.63;5063985;23;20597;-64
2021/05/14 10:53:20;;;;;;;18.97;7.17;;;;;;;-144.99;nan;52346.19;4949965;29;20217;-65
2021/05/14 10:55:51;;;;;;;15.97;5.10;;;;;;;-144.99;nan;52391.03;4953798;28;20209;-65
2021/05/14 10:58:45;;;;;;;16.87;5.63;;;;;;;-144.99;nan;52374.72;4947146;29;20314;-66
2021/05/14 11:01:31;;;;;;;10.33;4.60;;;;;;;-144.99;nan;52435.88;4961270;28;20207;-66
2021/05/14 11:04:05;;;;;;;8.63;4.63;;;;;;;-144.99;nan;52382.88;4972162;23;20240;-71
2021/05/14 11:06:41;;;;;;;11.63;3.77;;;;;;;-144.99;nan;52370.63;4970695;28;20219;-72
2021/05/14 11:09:11;;;;;;;12.23;4.67;;;;;;;-144.99;nan;52419.56;4971559;28;20231;-70
2021/05/14 11:11:54;;;;;;;14.00;5.37;;;;;;;-144.99;nan;52423.63;4965881;28;20666;-69
2021/05/14 11:14:20;;;;;;;15.60;5.27;;;;;;;-144.99;nan;52407.31;4958015;28;20655;-68
2021/05/14 11:19:32;;;;;;;14.73;4.30;;;;;;;-144.99;nan;52346.19;5168829;23;20226;-76
2021/05/14 11:25:05;;;;;;;13.67;4.00;;;;;;;-144.99;nan;52423.63;5015869;28;20218;-76
2021/05/14 11:28:02;;;;;;;9.63;4.93;;;;;;;-144.99;nan;52427.72;5016850;28;20210;-77
2021/05/14 11:30:31;;;;;;;12.33;5.97;;;;;;;-144.99;nan;52391.03;5042283;23;20235;-64
2021/05/14 11:33:03;;;;;;;14.80;6.80;;;;;;;-144.99;nan;52342.09;4995778;28;20705;-64
2021/05/14 11:35:32;;;;;;;11.20;6.40;;;;;;;-144.99;nan;52382.88;4994358;28;20267;-66
2021/05/14 11:38:04;;;;;;;18.50;8.50;;;;;;;-144.99;nan;52362.50;5000232;28;20219;-64
2021/05/14 11:40:35;;;;;;;17.70;7.73;;;;;;;-144.99;nan;52376.75;5000507;28;20242;-64
2021/05/14 11:43:04;;;;;;;14.40;5.37;;;;;;;-144.99;nan;52370.63;5003103;28;20203;-65
2021/05/14 11:45:36;;;;;;;13.03;5.90;;;;;;;-144.99;nan;52419.56;4993974;28;20231;-66
2021/05/14 11:48:12;;;;;;;7.73;5.33;;;;;;;-144.99;nan;52395.09;4997510;28;20255;-65
2021/05/14 11:50:47;;;;;;;9.33;5.50;;;;;;;-144.99;nan;52391.03;5006114;28;20221;-66
2021/05/14 11:53:18;;;;;;;13.70;5.47;;;;;;;-144.99;nan;52370.63;4989776;28;20269;-65
2021/05/14 11:55:49;;;;;;;14.93;5.67;;;;;;;-144.99;nan;52358.41;4993982;28;20254;-66
2021/05/14 11:58:27;;;;;;;20.17;5.70;;;;;;;-144.99;nan;52393.06;4994261;28;20250;-65
2021/05/14 12:00:54;;;;;;;17.33;8.13;;;;;;;-144.99;nan;52370.63;4993545;28;20207;-66
2021/05/14 12:03:25;;;;;;;11.57;5.30;;;;;;;-144.99;nan;52348.22;4993379;28;20262;-66
2021/05/14 12:06:03;;;;;;;16.07;7.13;;;;;;;-144.99;nan;52370.63;4994203;28;20215;-65
2021/05/14 12:08:35;;;;;;;12.13;5.00;;;;;;;-144.99;nan;52378.78;4993611;28;20238;-66
2021/05/14 12:11:12;;;;;;;13.40;6.40;;;;;;;-144.99;nan;52342.09;4994084;28;20285;-66
2021/05/14 12:13:41;;;;;;;18.13;6.60;;;;;;;-144.99;nan;52391.03;4994532;28;20548;-65
2021/05/14 12:16:08;;;;;;;13.27;5.10;;;;;;;-144.99;nan;52356.38;4993713;28;20272;-66
2021/05/14 12:18:39;;;;;;;10.23;5.50;;;;;;;-144.99;nan;52399.19;4992646;28;20235;-66